Time;durP1;ratioP1;P1;durP2;ratioP2;P2;SDS_P1;SDS_P2;PMS_P1;PMS_P2;Temp;Humidity;BMP_temperature;BMP_pressure;BME280_temperature;BME280_humidity;BME280_pressure;Samples;Min_cycle;Max_cycle;Signal;HPM_P1;HPM_P2
2022/10/01 00:01:46;;;;;;;5.63;4.03;;;;;;;10.62;100.00;100270.53;5076874;28;20657;-77
2022/10/01 00:04:11;;;;;;;4.20;3.50;;;;;;;11.19;100.00;100347.66;5076018;28;20623;-77
2022/10/01 00:06:37;;;;;;;5.57;3.77;;;;;;;9.65;100.00;100097.28;5077606;28;20205;-77
2022/10/01 00:09:03;;;;;;;4.67;4.00;;;;;;;9.50;100.00;100058.19;5061679;28;20190;-76
2022/10/01 00:11:28;;;;;;;4.17;3.50;;;;;;;9.50;100.00;100102.88;5068582;28;20252;-77
2022/10/01 00:13:54;;;;;;;4.50;4.03;;;;;;;10.06;100.00;100201.41;5058805;28;20444;-78
2022/10/01 00:16:26;;;;;;;7.10;4.13;;;;;;;9.44;100.00;100072.41;5073024;28;20493;-77
2022/10/01 00:18:52;;;;;;;5.33;3.83;;;;;;;9.75;100.00;100103.03;5072735;28;20184;-76
2022/10/01 00:21:24;;;;;;;6.83;4.40;;;;;;;9.71;100.00;100134.75;5049383;28;20451;-76
2022/10/01 00:23:58;;;;;;;5.80;4.03;;;;;;;10.44;100.00;100216.75;5078345;28;20412;-75
2022/10/01 00:26:27;;;;;;;8.13;4.57;;;;;;;9.54;100.00;100093.38;5073307;28;20453;-76
2022/10/01 00:28:58;;;;;;;5.60;4.00;;;;;;;11.22;100.00;100355.28;5077733;28;20997;-75
2022/10/01 00:31:25;;;;;;;5.80;4.97;;;;;;;8.65;100.00;99958.38;5069567;28;20918;-76
2022/10/01 00:33:54;;;;;;;6.47;4.37;;;;;;;10.24;100.00;100210.63;5073614;28;20914;-74
2022/10/01 00:36:20;;;;;;;5.13;4.63;;;;;;;8.51;100.00;99930.84;5070950;28;20530;-73
2022/10/01 00:38:47;;;;;;;6.37;4.43;;;;;;;9.58;100.00;100113.38;5076335;28;20511;-74
2022/10/01 00:41:13;;;;;;;5.10;4.60;;;;;;;9.60;100.00;100116.63;5075974;28;20590;-73
2022/10/01 00:43:44;;;;;;;6.43;4.70;;;;;;;10.57;100.00;100243.53;5074187;28;20420;-74
2022/10/01 00:46:21;;;;;;;8.00;5.70;;;;;;;11.12;100.00;100328.09;5071909;28;20468;-75
2022/10/01 00:48:57;;;;;;;8.77;5.40;;;;;;;10.81;100.00;100284.06;5074831;28;20417;-76
2022/10/01 00:51:29;;;;;;;8.20;5.80;;;;;;;10.96;100.00;100322.16;5056851;28;20830;-76
2022/10/01 00:54:07;;;;;;;8.93;5.50;;;;;;;10.97;100.00;100317.63;5057192;28;20426;-75
2022/10/01 00:56:33;;;;;;;5.97;5.13;;;;;;;10.90;100.00;100292.69;5074697;28;20479;-76
2022/10/01 00:58:59;;;;;;;6.23;5.40;;;;;;;10.38;100.00;100205.03;5073017;28;20896;-75
2022/10/01 01:01:25;;;;;;;6.00;5.40;;;;;;;10.09;100.00;100144.72;5056964;28;20274;-75
2022/10/01 01:03:51;;;;;;;7.47;6.13;;;;;;;10.92;100.00;100282.56;5074147;28;20975;-74
2022/10/01 01:06:16;;;;;;;10.10;6.17;;;;;;;10.17;100.00;100183.84;5078484;28;20537;-73
2022/10/01 01:08:42;;;;;;;13.00;6.60;;;;;;;10.87;100.00;100283.19;5076092;28;20551;-74
2022/10/01 01:11:13;;;;;;;6.17;5.57;;;;;;;10.84;100.00;100284.44;5057242;28;20557;-74
2022/10/01 01:13:56;;;;;;;6.50;5.90;;;;;;;10.06;100.00;100163.88;5051458;28;20557;-73
2022/10/01 01:16:33;;;;;;;6.03;5.37;;;;;;;10.86;100.00;100276.19;5073536;28;20490;-72
2022/10/01 01:19:11;;;;;;;9.13;6.50;;;;;;;10.63;100.00;100276.72;5073191;28;20422;-74
2022/10/01 01:21:46;;;;;;;9.33;6.43;;;;;;;10.77;100.00;100296.25;5062118;28;20860;-74
2022/10/01 01:24:38;;;;;;;11.13;6.47;;;;;;;10.74;100.00;100277.91;5076195;28;20415;-74
2022/10/01 01:27:06;;;;;;;9.60;5.67;;;;;;;10.78;100.00;100271.88;5075238;28;20481;-74
2022/10/01 01:29:49;;;;;;;8.20;6.47;;;;;;;10.72;100.00;100269.25;5082459;28;20433;-75
2022/10/01 01:32:29;;;;;;;7.00;6.30;;;;;;;10.24;100.00;100176.63;5078215;28;20926;-74
2022/10/01 01:34:59;;;;;;;7.23;6.37;;;;;;;10.71;100.00;100248.84;5076152;28;20513;-73
2022/10/01 01:37:30;;;;;;;8.53;5.60;;;;;;;9.82;100.00;100105.69;5082902;28;20437;-75
2022/10/01 01:39:59;;;;;;;7.63;5.90;;;;;;;10.29;100.00;100203.63;5078774;28;20444;-75
2022/10/01 01:42:34;;;;;;;7.93;5.80;;;;;;;10.69;100.00;100232.94;5063071;28;20924;-75
2022/10/01 01:45:02;;;;;;;10.30;5.70;;;;;;;10.68;100.00;100241.22;5080246;28;20420;-76
2022/10/01 01:47:29;;;;;;;7.10;6.10;;;;;;;10.64;100.00;100251.53;5080081;28;20448;-75
2022/10/01 01:49:57;;;;;;;6.20;5.60;;;;;;;10.59;100.00;100237.97;5076375;28;20479;-74
2022/10/01 01:52:23;;;;;;;6.70;5.50;;;;;;;10.57;100.00;100222.06;5081705;28;20471;-75
2022/10/01 01:54:49;;;;;;;6.33;5.70;;;;;;;10.66;100.00;100227.19;5083882;28;20432;-75
2022/10/01 01:57:17;;;;;;;7.00;6.30;;;;;;;10.09;100.00;100130.50;5062294;28;20244;-74
2022/10/01 01:59:42;;;;;;;7.03;5.80;;;;;;;9.97;100.00;100122.28;5073449;28;20516;-75
2022/10/01 02:02:15;;;;;;;7.53;5.73;;;;;;;10.43;100.00;100171.41;5076209;28;20523;-73
2022/10/01 02:04:48;;;;;;;8.70;5.60;;;;;;;10.64;100.00;100205.94;5075278;28;20187;-73
2022/10/01 02:07:25;;;;;;;6.30;5.70;;;;;;;10.62;100.00;100205.34;5074691;28;20517;-74
2022/10/01 02:10:28;;;;;;;6.70;6.10;;;;;;;10.58;100.00;100210.28;5080420;28;20424;-74
2022/10/01 02:13:02;;;;;;;8.77;5.33;;;;;;;10.63;100.00;100196.25;5075834;28;20464;-73
2022/10/01 02:15:47;;;;;;;7.60;6.50;;;;;;;10.54;100.00;100200.22;5080916;28;20455;-74
2022/10/01 02:18:26;;;;;;;7.00;5.80;;;;;;;10.58;100.00;100196.06;5075464;28;20957;-76
2022/10/01 02:21:18;;;;;;;6.60;5.60;;;;;;;10.50;100.00;100177.53;5077027;28;20411;-75
2022/10/01 02:23:57;;;;;;;15.63;6.60;;;;;;;10.01;100.00;100117.31;5038669;28;20529;-76
2022/10/01 02:26:24;;;;;;;7.67;6.50;;;;;;;10.44;100.00;100160.44;5075021;28;20480;-74
2022/10/01 02:28:53;;;;;;;7.93;6.23;;;;;;;9.93;100.00;100099.66;5070083;28;20496;-76
2022/10/01 02:31:21;;;;;;;8.60;6.17;;;;;;;9.84;100.00;100060.75;5075214;28;20420;-72
2022/10/01 02:33:50;;;;;;;8.30;6.27;;;;;;;10.11;100.00;100082.88;5074343;28;20627;-74
2022/10/01 02:36:19;;;;;;;8.13;5.77;;;;;;;9.89;100.00;100071.63;5075381;28;20863;-74
2022/10/01 02:38:45;;;;;;;6.90;5.93;;;;;;;10.49;100.00;100157.97;5057340;28;20537;-73
2022/10/01 02:41:14;;;;;;;6.63;6.00;;;;;;;10.52;100.00;100154.84;5074496;28;20425;-74
2022/10/01 02:43:50;;;;;;;6.30;5.60;;;;;;;10.47;100.00;100145.78;5077749;28;20464;-75
2022/10/01 02:46:34;;;;;;;7.20;5.70;;;;;;;10.41;100.00;100152.84;5077481;28;20931;-75
2022/10/01 02:49:01;;;;;;;7.50;6.43;;;;;;;10.35;100.00;100138.44;5078626;28;20416;-74
2022/10/01 02:51:33;;;;;;;10.03;6.33;;;;;;;10.42;100.00;100126.88;5074722;28;20433;-73
2022/10/01 02:54:07;;;;;;;11.23;6.70;;;;;;;10.41;100.00;100147.47;5077564;28;20435;-74
2022/10/01 02:59:20;;;;;;;11.50;6.40;;;;;;;10.37;100.00;100147.09;5076971;28;20400;-73
2022/10/01 03:01:45;;;;;;;9.30;6.10;;;;;;;10.32;100.00;100108.56;5068003;28;20429;-74
2022/10/01 03:04:12;;;;;;;9.90;6.90;;;;;;;10.09;100.00;100079.56;5077213;28;20459;-74
2022/10/01 03:06:37;;;;;;;7.70;5.90;;;;;;;9.96;100.00;100059.03;5053367;28;20298;-74
2022/10/01 03:09:02;;;;;;;8.27;6.07;;;;;;;10.34;100.00;100123.41;5078412;28;20511;-74
2022/10/01 03:11:28;;;;;;;6.63;6.00;;;;;;;10.01;100.00;100061.91;5074108;28;20182;-73
2022/10/01 03:13:54;;;;;;;8.80;6.60;;;;;;;10.38;100.00;100115.75;5076508;28;20244;-73
2022/10/01 03:16:19;;;;;;;7.20;5.90;;;;;;;10.36;100.00;100107.94;5074941;28;20210;-73
2022/10/01 03:18:44;;;;;;;7.63;5.70;;;;;;;10.40;100.00;100119.84;5075226;28;20180;-74
2022/10/01 03:21:10;;;;;;;10.80;6.20;;;;;;;10.28;100.00;100094.78;5074026;28;20683;-72
2022/10/01 03:23:35;;;;;;;9.40;6.03;;;;;;;9.70;100.00;99976.97;5059668;28;20749;-74
2022/10/01 03:26:00;;;;;;;9.23;5.80;;;;;;;10.39;100.00;100095.94;5081389;28;20206;-73
2022/10/01 03:28:26;;;;;;;8.53;5.63;;;;;;;10.27;100.00;100065.50;5076083;28;20269;-74
2022/10/01 03:30:51;;;;;;;7.87;5.40;;;;;;;9.93;100.00;100052.25;5067992;28;20199;-74
2022/10/01 03:33:17;;;;;;;6.10;5.20;;;;;;;10.24;100.00;100072.09;5077853;28;20302;-74
2022/10/01 03:35:42;;;;;;;7.63;4.63;;;;;;;10.34;100.00;100064.41;5070395;28;20788;-74
2022/10/01 03:38:07;;;;;;;7.77;5.20;;;;;;;9.42;100.00;99913.88;5057527;28;20665;-73
2022/10/01 03:40:36;;;;;;;7.23;4.73;;;;;;;10.28;100.00;100059.09;5075619;28;20187;-75
2022/10/01 03:43:02;;;;;;;6.60;5.40;;;;;;;9.57;100.00;99948.38;5075535;28;20214;-73
2022/10/01 03:45:27;;;;;;;8.00;5.93;;;;;;;10.24;100.00;100066.75;5069631;28;21016;-74
2022/10/01 03:47:53;;;;;;;10.40;5.30;;;;;;;10.29;100.00;100050.03;5069443;28;20694;-76
2022/10/01 03:50:20;;;;;;;5.27;4.73;;;;;;;9.78;100.00;99951.78;5074190;28;20647;-74
2022/10/01 03:52:46;;;;;;;10.73;5.27;;;;;;;9.73;100.00;99961.28;5068717;28;20203;-75
2022/10/01 03:55:11;;;;;;;7.40;5.50;;;;;;;10.31;100.00;100061.34;5075299;28;20431;-75
2022/10/01 03:57:37;;;;;;;6.80;5.00;;;;;;;10.21;100.00;100026.94;5033352;23;20251;-69
2022/10/01 04:00:03;;;;;;;6.37;5.30;;;;;;;10.28;100.00;100029.63;5005919;28;20264;-68
2022/10/01 04:02:29;;;;;;;7.50;5.30;;;;;;;10.20;100.00;100006.53;5001094;28;20611;-69
2022/10/01 04:04:54;;;;;;;6.33;5.33;;;;;;;9.60;100.00;99907.00;5007976;28;20503;-68
2022/10/01 04:07:20;;;;;;;8.13;5.90;;;;;;;10.46;100.00;100039.59;5005925;28;20237;-68
2022/10/01 04:09:45;;;;;;;7.53;5.60;;;;;;;10.40;100.00;100043.97;5005712;28;20191;-69
2022/10/01 04:12:10;;;;;;;6.30;5.70;;;;;;;9.69;100.00;99905.69;5007004;28;20547;-69
2022/10/01 04:14:36;;;;;;;5.90;5.30;;;;;;;10.50;100.00;100033.59;5006968;28;20184;-69
2022/10/01 04:17:01;;;;;;;7.87;5.40;;;;;;;10.50;100.00;100019.34;5003376;28;20209;-68
2022/10/01 04:19:27;;;;;;;7.57;5.60;;;;;;;10.35;100.00;99995.53;5003038;28;20228;-70
2022/10/01 04:21:52;;;;;;;7.53;5.30;;;;;;;10.26;100.00;99983.41;5006244;28;20173;-71
2022/10/01 04:24:17;;;;;;;5.00;4.50;;;;;;;10.43;100.00;99973.84;5008093;28;20192;-68
2022/10/01 04:26:43;;;;;;;5.23;4.40;;;;;;;9.93;100.00;99914.81;5006297;28;20212;-69
2022/10/01 04:29:08;;;;;;;8.83;4.83;;;;;;;10.59;100.00;100013.50;5008243;28;20185;-68
2022/10/01 04:31:34;;;;;;;4.97;4.57;;;;;;;10.40;100.00;100014.47;5006318;28;20193;-67
2022/10/01 04:34:00;;;;;;;6.90;5.13;;;;;;;10.57;100.00;100004.84;5008299;28;20189;-67
2022/10/01 04:36:25;;;;;;;5.40;4.90;;;;;;;9.98;100.00;99919.50;5007332;28;20280;-68
2022/10/01 04:38:55;;;;;;;5.53;3.80;;;;;;;10.04;100.00;99926.66;5005492;28;20471;-70
2022/10/01 04:41:21;;;;;;;7.03;4.33;;;;;;;9.85;100.00;99894.47;5009359;28;20213;-69
2022/10/01 04:43:46;;;;;;;5.43;4.20;;;;;;;10.47;100.00;99982.25;5012528;28;20801;-70
2022/10/01 04:46:13;;;;;;;4.40;4.00;;;;;;;10.31;100.00;99952.28;5010866;28;20507;-70
2022/10/01 04:48:38;;;;;;;4.30;3.83;;;;;;;10.46;100.00;99976.06;5011006;28;20193;-71
2022/10/01 04:51:04;;;;;;;3.60;3.30;;;;;;;10.67;100.00;100006.22;5009871;28;20954;-71
2022/10/01 04:53:29;;;;;;;4.87;3.47;;;;;;;10.70;100.00;100011.16;5008632;28;20682;-71
2022/10/01 04:55:55;;;;;;;5.17;3.20;;;;;;;10.66;100.00;100010.78;5008010;28;20657;-69
2022/10/01 04:58:20;;;;;;;4.83;3.13;;;;;;;10.03;100.00;99891.03;5006534;28;20580;-69
2022/10/01 05:00:47;;;;;;;4.00;3.20;;;;;;;10.56;100.00;99981.78;5008756;28;20192;-69
2022/10/01 05:03:12;;;;;;;5.43;2.83;;;;;;;10.60;100.00;100011.66;5007487;28;20186;-68
2022/10/01 05:05:39;;;;;;;2.70;2.50;;;;;;;9.72;100.00;99857.09;5010149;28;20943;-69
2022/10/01 05:08:05;;;;;;;5.63;2.70;;;;;;;10.48;100.00;99971.31;5004629;28;20220;-70
2022/10/01 05:10:31;;;;;;;3.93;2.63;;;;;;;10.42;100.00;99963.34;5011074;28;20431;-70
2022/10/01 05:12:57;;;;;;;3.77;2.33;;;;;;;10.75;100.00;100001.41;5010352;28;20200;-71
2022/10/01 05:15:22;;;;;;;4.10;2.30;;;;;;;10.65;100.00;99994.91;5010569;28;20181;-70
2022/10/01 05:17:48;;;;;;;3.20;2.30;;;;;;;10.79;100.00;99999.09;5010067;28;20447;-71
2022/10/01 05:20:19;;;;;;;2.60;1.60;;;;;;;10.88;100.00;100018.41;5009655;28;20273;-70
2022/10/01 05:22:45;;;;;;;2.83;2.07;;;;;;;10.91;100.00;99986.59;5009630;28;20196;-70
2022/10/01 05:25:11;;;;;;;2.30;2.10;;;;;;;10.90;100.00;99981.44;5008636;28;20436;-70
2022/10/01 05:27:37;;;;;;;4.43;4.03;;;;;;;10.92;100.00;100000.84;5010398;28;20855;-70
2022/10/01 05:30:04;;;;;;;1.87;1.60;;;;;;;10.47;100.00;99923.25;5008547;28;20515;-69
2022/10/01 05:32:30;;;;;;;2.87;1.70;;;;;;;10.54;100.00;99932.91;5009996;28;20467;-70
2022/10/01 05:34:55;;;;;;;2.10;1.90;;;;;;;10.84;100.00;99967.06;5009165;28;20432;-69
2022/10/01 05:37:21;;;;;;;5.03;2.80;;;;;;;10.61;100.00;99939.00;5008976;28;20443;-70
2022/10/01 05:39:46;;;;;;;4.07;3.00;;;;;;;10.67;100.00;99952.59;5010183;28;20877;-70
2022/10/01 05:42:12;;;;;;;3.93;2.57;;;;;;;10.97;100.00;100007.19;5008938;28;20661;-70
2022/10/01 05:44:38;;;;;;;2.33;2.13;;;;;;;10.89;100.00;99975.28;5009471;28;20627;-70
2022/10/01 05:47:07;;;;;;;3.50;2.63;;;;;;;10.96;100.00;100002.03;5008669;28;20733;-71
2022/10/01 05:49:32;;;;;;;3.17;2.97;;;;;;;11.00;100.00;100013.97;5004553;28;20928;-69
2022/10/01 05:51:59;;;;;;;3.27;2.97;;;;;;;11.05;100.00;100024.84;5020153;28;20477;-70
2022/10/01 05:54:28;;;;;;;3.60;3.10;;;;;;;11.03;100.00;100016.22;5005638;28;20185;-70
2022/10/01 05:56:53;;;;;;;4.60;3.53;;;;;;;10.89;100.00;99994.06;5003788;28;20475;-70
2022/10/01 05:59:19;;;;;;;3.07;2.87;;;;;;;10.62;100.00;99947.91;5020269;28;20545;-70
2022/10/01 06:01:45;;;;;;;2.97;2.63;;;;;;;11.07;100.00;100031.63;5006280;28;20580;-71
2022/10/01 06:04:10;;;;;;;6.33;2.60;;;;;;;10.64;100.00;99943.09;5005812;28;20191;-70
2022/10/01 06:06:36;;;;;;;2.83;2.53;;;;;;;11.16;100.00;100044.78;4996174;28;20227;-70
2022/10/01 06:09:02;;;;;;;3.70;2.97;;;;;;;10.87;100.00;99988.06;5006456;28;20275;-71
2022/10/01 06:11:27;;;;;;;2.80;2.60;;;;;;;10.67;100.00;99950.72;5006210;28;20510;-70
2022/10/01 06:13:53;;;;;;;2.27;2.10;;;;;;;10.67;100.00;99956.06;4997250;28;20263;-70
2022/10/01 06:16:19;;;;;;;2.60;2.33;;;;;;;10.27;100.00;99878.72;5002246;28;20968;-71
2022/10/01 06:18:46;;;;;;;2.67;2.47;;;;;;;10.90;100.00;99973.41;5005968;28;20268;-70
2022/10/01 06:21:11;;;;;;;2.13;2.03;;;;;;;10.15;100.00;99857.16;5005320;28;20447;-71
2022/10/01 06:23:37;;;;;;;4.13;2.80;;;;;;;11.12;100.00;100017.56;5005465;28;20962;-69
2022/10/01 06:26:04;;;;;;;3.50;2.83;;;;;;;10.45;100.00;99896.69;5005195;28;20185;-70
2022/10/01 06:28:30;;;;;;;4.00;2.60;;;;;;;10.50;100.00;99906.75;5006550;28;20216;-70
2022/10/01 06:30:56;;;;;;;3.10;2.53;;;;;;;11.29;100.00;100033.91;5005394;28;20444;-70
2022/10/01 06:33:21;;;;;;;2.13;2.03;;;;;;;11.11;100.00;100007.03;5007837;28;20478;-71
2022/10/01 06:35:51;;;;;;;3.40;2.40;;;;;;;11.29;100.00;100050.00;5005901;28;20676;-71
2022/10/01 06:38:19;;;;;;;3.57;2.90;;;;;;;11.43;100.00;100046.16;5006695;28;20223;-71
2022/10/01 06:40:51;;;;;;;3.40;2.63;;;;;;;11.17;100.00;100011.53;5004293;28;20847;-71
2022/10/01 06:43:17;;;;;;;4.20;2.10;;;;;;;11.50;100.00;100056.81;5004491;28;20443;-71
2022/10/01 06:45:42;;;;;;;3.53;2.87;;;;;;;10.88;100.00;99948.66;5005407;28;20447;-70
2022/10/01 06:48:13;;;;;;;3.03;2.60;;;;;;;10.42;100.00;99883.72;5002638;28;20215;-70
2022/10/01 06:50:40;;;;;;;4.23;2.33;;;;;;;11.49;100.00;100057.84;4999056;28;20387;-70
2022/10/01 06:53:06;;;;;;;3.40;2.23;;;;;;;11.19;100.00;100006.75;5002332;28;20887;-71
2022/10/01 06:55:33;;;;;;;3.87;2.20;;;;;;;11.58;100.00;100063.75;5002189;28;20469;-71
2022/10/01 06:58:00;;;;;;;2.83;2.10;;;;;;;11.07;100.00;99977.97;5000591;28;20216;-71
2022/10/01 07:00:28;;;;;;;4.30;2.13;;;;;;;11.66;100.00;100071.50;5011897;28;20471;-71
2022/10/01 07:02:54;;;;;;;3.10;1.70;;;;;;;10.86;100.00;99928.25;4995311;28;20982;-70
2022/10/01 07:05:20;;;;;;;2.87;2.03;;;;;;;11.51;100.00;100023.53;4993639;28;20803;-71
2022/10/01 07:07:49;;;;;;;4.47;2.60;;;;;;;11.22;100.00;99990.19;5004656;28;20291;-70
2022/10/01 07:10:18;;;;;;;4.20;2.30;;;;;;;11.86;100.00;100076.66;5002157;28;20813;-71
2022/10/01 07:12:44;;;;;;;8.07;2.13;;;;;;;11.19;100.00;99982.59;5004346;28;21072;-70
2022/10/01 07:15:10;;;;;;;4.97;2.80;;;;;;;11.90;100.00;100089.44;5005685;28;20573;-70
2022/10/01 07:17:43;;;;;;;6.03;3.00;;;;;;;11.37;100.00;100025.56;5004080;28;20945;-70
2022/10/01 07:20:08;;;;;;;5.30;2.53;;;;;;;10.83;100.00;99899.19;5006072;28;20216;-68
2022/10/01 07:22:35;;;;;;;3.40;2.13;;;;;;;12.02;100.00;100059.09;5003744;28;20525;-69
2022/10/01 07:25:01;;;;;;;5.23;2.80;;;;;;;11.97;100.00;100065.16;5003216;28;20195;-68
2022/10/01 07:27:26;;;;;;;6.07;2.67;;;;;;;11.54;100.00;100002.44;5005116;28;20468;-69
2022/10/01 07:29:52;;;;;;;3.17;2.00;;;;;;;11.66;100.00;100026.66;5001754;28;20804;-68
2022/10/01 07:32:17;;;;;;;3.70;2.03;;;;;;;11.44;100.00;99974.47;5005134;28;20218;-68
2022/10/01 07:34:43;;;;;;;3.37;2.00;;;;;;;12.37;100.00;100111.13;5005213;28;20197;-69
2022/10/01 07:37:08;;;;;;;8.70;2.27;;;;;;;11.85;100.00;100016.72;5002212;28;20210;-68
2022/10/01 07:39:35;;;;;;;3.17;2.53;;;;;;;11.81;100.00;100004.78;5005602;28;20185;-68
2022/10/01 07:42:00;;;;;;;3.60;2.13;;;;;;;12.61;100.00;100124.66;5006636;28;20185;-68
2022/10/01 07:44:28;;;;;;;3.43;2.00;;;;;;;12.52;100.00;100083.81;5006933;28;20819;-68
2022/10/01 07:46:54;;;;;;;4.83;2.00;;;;;;;11.77;100.00;99950.69;5007750;28;20562;-69
2022/10/01 07:49:19;;;;;;;6.80;2.17;;;;;;;11.99;100.00;100004.75;5008481;28;20498;-68
2022/10/01 07:51:47;;;;;;;3.63;1.80;;;;;;;12.95;100.00;100130.38;5003665;28;20945;-69
2022/10/01 07:54:13;;;;;;;3.33;1.80;;;;;;;12.85;100.00;100106.72;5003178;28;20213;-69
2022/10/01 07:56:38;;;;;;;4.50;2.80;;;;;;;12.86;100.00;100121.81;4999392;28;20876;-69
2022/10/01 07:59:04;;;;;;;7.43;2.20;;;;;;;12.89;100.00;100103.31;5002730;28;20180;-69
2022/10/01 08:01:30;;;;;;;8.20;2.10;;;;;;;13.00;100.00;100114.34;4998875;28;20208;-69
2022/10/01 08:03:56;;;;;;;6.00;2.43;;;;;;;13.13;100.00;100106.03;4994391;28;20657;-70
2022/10/01 08:06:21;;;;;;;10.73;3.43;;;;;;;13.24;100.00;100126.75;4987282;28;20518;-69
2022/10/01 08:08:47;;;;;;;9.80;2.47;;;;;;;12.60;100.00;100007.34;4994826;28;20669;-70
2022/10/01 08:11:16;;;;;;;10.43;2.53;;;;;;;12.49;100.00;99994.69;5000507;28;20242;-69
2022/10/01 08:13:44;;;;;;;6.30;2.07;;;;;;;12.59;100.00;100000.34;4995620;28;20256;-69
2022/10/01 08:16:11;;;;;;;4.80;2.30;;;;;;;13.46;100.00;100135.13;4993202;28;20448;-69
2022/10/01 08:18:37;;;;;;;8.30;3.10;;;;;;;13.21;100.00;100091.41;5000071;28;20498;-68
2022/10/01 08:21:03;;;;;;;7.23;2.40;;;;;;;13.23;100.00;100100.91;4996568;28;20443;-70
2022/10/01 08:23:32;;;;;;;6.13;1.90;;;;;;;13.50;100.00;100138.16;4995363;28;20525;-70
2022/10/01 08:26:06;;;;;;;7.07;1.83;;;;;;;13.62;100.00;100140.84;4997607;28;20523;-69
2022/10/01 08:28:34;;;;;;;6.70;2.10;;;;;;;13.65;100.00;100138.50;4998317;28;20561;-70
2022/10/01 08:31:08;;;;;;;8.27;2.23;;;;;;;13.67;100.00;100146.34;4995271;28;20447;-70
2022/10/01 08:33:35;;;;;;;5.50;1.73;;;;;;;13.61;100.00;100128.44;4996428;28;20478;-70
2022/10/01 08:36:02;;;;;;;5.40;1.80;;;;;;;13.37;100.00;100077.28;5004910;28;20447;-70
2022/10/01 08:38:27;;;;;;;9.23;2.10;;;;;;;13.08;100.00;100044.00;5003097;28;20467;-68
2022/10/01 08:40:53;;;;;;;10.13;2.57;;;;;;;13.57;100.00;100098.44;5000791;28;20865;-68
2022/10/01 08:43:29;;;;;;;7.10;2.23;;;;;;;13.91;100.00;100141.72;4998267;28;20191;-69
2022/10/01 08:46:12;;;;;;;6.20;2.53;;;;;;;13.91;100.00;100137.16;5001177;28;20191;-69
2022/10/01 08:48:43;;;;;;;8.50;2.10;;;;;;;13.95;100.00;100142.91;5002360;28;20439;-70
2022/10/01 08:51:09;;;;;;;7.10;2.00;;;;;;;14.09;100.00;100155.06;5000428;28;20451;-70
2022/10/01 08:53:46;;;;;;;10.50;2.23;;;;;;;13.99;100.00;100146.75;5000671;28;20471;-70
2022/10/01 08:56:23;;;;;;;5.40;1.63;;;;;;;14.10;100.00;100147.81;5004658;28;20397;-70
2022/10/01 08:58:56;;;;;;;6.93;1.83;;;;;;;14.18;100.00;100153.63;5000403;28;20546;-70
2022/10/01 09:01:22;;;;;;;6.20;2.63;;;;;;;13.59;100.00;100053.22;4999637;28;20455;-70
2022/10/01 09:03:48;;;;;;;6.43;1.90;;;;;;;13.65;100.00;100051.44;5000047;28;20427;-68
2022/10/01 09:06:16;;;;;;;10.80;2.20;;;;;;;14.35;100.00;100150.16;5001120;28;20185;-69
2022/10/01 09:09:15;;;;;;;8.07;2.20;;;;;;;13.92;100.00;100095.69;5003473;28;20196;-68
2022/10/01 09:11:57;;;;;;;6.07;2.13;;;;;;;14.03;100.00;100112.88;4995817;28;20514;-68
2022/10/01 09:14:42;;;;;;;6.60;2.17;;;;;;;14.51;100.00;100135.91;5002112;28;20451;-68
2022/10/01 09:17:36;;;;;;;8.30;2.40;;;;;;;14.71;100.00;100161.66;4996577;28;20772;-69
2022/10/01 09:20:09;;;;;;;7.73;2.27;;;;;;;14.66;100.00;100146.19;5001956;28;20523;-69
2022/10/01 09:23:02;;;;;;;7.53;2.27;;;;;;;14.42;100.00;100092.31;4996070;28;20641;-69
2022/10/01 09:25:29;;;;;;;12.70;2.40;;;;;;;14.91;100.00;100146.66;4993851;28;20435;-70
2022/10/01 09:28:05;;;;;;;9.97;2.63;;;;;;;14.34;100.00;100043.31;4998722;28;20467;-71
2022/10/01 09:30:31;;;;;;;15.67;3.37;;;;;;;14.32;100.00;100011.22;4997879;28;20936;-69
2022/10/01 09:33:09;;;;;;;13.30;3.00;;;;;;;14.44;100.00;99992.25;5002108;28;21202;-69
2022/10/01 09:35:44;;;;;;;14.70;3.00;;;;;;;15.01;100.00;100099.25;4998703;28;20530;-71
2022/10/01 09:38:33;;;;;;;5.70;2.40;;;;;;;15.21;100.00;100137.38;5019579;28;20509;-71
2022/10/01 09:40:59;;;;;;;19.63;3.10;;;;;;;14.43;100.00;100021.09;5013595;28;20446;-69
2022/10/01 09:43:30;;;;;;;14.67;2.30;;;;;;;14.87;100.00;100086.09;4998302;28;20444;-68
2022/10/01 09:45:56;;;;;;;10.03;3.37;;;;;;;14.43;100.00;100029.19;5001887;28;20185;-73
2022/10/01 09:48:45;;;;;;;8.20;3.17;;;;;;;13.85;100.00;99978.25;5006053;28;20952;-72
2022/10/01 09:51:16;;;;;;;8.73;2.30;;;;;;;14.36;100.00;100052.81;5004480;28;20781;-72
2022/10/01 09:54:03;;;;;;;10.07;3.20;;;;;;;14.87;100.00;100123.91;5004578;28;20552;-72
2022/10/01 09:56:37;;;;;;;12.20;2.60;;;;;;;14.47;100.00;100076.22;5001567;28;20527;-72
2022/10/01 09:59:09;;;;;;;8.67;2.90;;;;;;;14.58;100.00;100115.03;5009804;28;20481;-72
2022/10/01 10:01:44;;;;;;;6.97;1.60;;;;;;;14.68;100.00;100150.28;5009670;28;20431;-72
2022/10/01 10:04:10;;;;;;;8.43;2.00;;;;;;;14.73;100.00;100149.56;5021515;28;20906;-72
2022/10/01 10:06:37;;;;;;;10.03;2.47;;;;;;;13.02;100.00;99869.97;5021852;22;21049;-77
2022/10/01 10:09:03;;;;;;;16.90;3.40;;;;;;;13.82;100.00;100030.78;5012025;28;20242;-77
2022/10/01 10:11:31;;;;;;;10.47;2.33;;;;;;;14.37;100.00;100156.97;5011657;28;20449;-74
2022/10/01 10:14:02;;;;;;;9.30;2.40;;;;;;;13.11;100.00;99895.47;5008406;28;20475;-79
2022/10/01 10:16:29;;;;;;;7.83;2.03;;;;;;;15.24;100.00;100163.91;5003609;28;20464;-80
2022/10/01 10:18:59;;;;;;;5.70;1.90;;;;;;;15.36;100.00;100177.34;4995020;28;20490;-86
2022/10/01 10:21:32;;;;;;;5.57;2.00;;;;;;;14.53;100.00;100006.19;4989682;28;21099;-82
2022/10/01 10:24:01;;;;;;;8.73;1.60;;;;;;;13.73;100.00;99800.44;4996404;28;20520;-87
2022/10/01 10:26:39;;;;;;;5.20;1.70;;;;;;;15.95;100.00;100112.78;4995002;28;20480;-80
2022/10/01 10:29:08;;;;;;;5.50;1.67;;;;;;;14.38;100.00;99851.06;4987617;28;20447;-81
2022/10/01 10:31:40;;;;;;;7.00;2.40;;;;;;;14.02;100.00;99812.75;4984581;28;20456;-79
2022/10/01 10:34:15;;;;;;;14.60;2.70;;;;;;;14.90;100.00;100011.91;4986947;28;20923;-80
2022/10/01 10:36:43;;;;;;;6.53;2.20;;;;;;;13.14;100.00;99730.75;4992427;28;20505;-79
2022/10/01 10:39:24;;;;;;;7.63;2.23;;;;;;;15.40;100.00;100123.63;4995283;28;20559;-80
2022/10/01 10:41:52;;;;;;;6.70;1.80;;;;;;;14.09;100.00;99992.44;4985280;28;20448;-77
2022/10/01 10:44:20;;;;;;;6.53;1.90;;;;;;;13.10;100.00;99883.03;4992229;28;20445;-79
2022/10/01 10:46:47;;;;;;;8.00;1.73;;;;;;;14.01;100.00;100063.75;4986340;28;20469;-78
2022/10/01 10:49:28;;;;;;;7.70;2.20;;;;;;;13.29;100.00;100042.63;4993280;28;20979;-76
2022/10/01 10:51:55;;;;;;;5.03;1.60;;;;;;;12.67;100.00;99959.66;4991000;28;20435;-76
2022/10/01 10:54:35;;;;;;;2.23;1.00;;;;;;;13.74;100.00;100102.06;4990015;28;20450;-77
2022/10/01 10:57:15;;;;;;;4.00;1.70;;;;;;;14.57;100.00;100229.44;4979544;28;20497;-80
2022/10/01 10:59:40;;;;;;;4.80;2.67;;;;;;;13.06;100.00;99986.88;4995398;28;20490;-79
2022/10/01 11:02:17;;;;;;;4.97;1.07;;;;;;;12.76;100.00;99877.50;4983385;28;20988;-78
2022/10/01 11:04:45;;;;;;;3.57;1.23;;;;;;;14.28;100.00;100100.94;4983600;28;20185;-79
2022/10/01 11:07:18;;;;;;;5.27;1.07;;;;;;;13.04;100.00;99935.94;4988370;28;20995;-77
2022/10/01 11:10:02;;;;;;;2.30;0.80;;;;;;;13.30;100.00;99940.03;4988214;28;20440;-79
2022/10/01 11:12:59;;;;;;;2.57;1.00;;;;;;;14.00;100.00;100051.31;4985084;28;20508;-82
2022/10/01 11:15:49;;;;;;;3.40;1.10;;;;;;;14.88;100.00;100205.72;4982629;28;20446;-78
2022/10/01 11:18:24;;;;;;;4.43;1.10;;;;;;;14.67;100.00;100202.66;4989049;28;20451;-83
2022/10/01 11:20:50;;;;;;;2.50;1.00;;;;;;;14.56;100.00;100206.22;4990497;28;20443;-77
2022/10/01 11:23:37;;;;;;;4.83;1.80;;;;;;;14.61;100.00;100211.72;4983935;28;20456;-77
2022/10/01 11:26:40;;;;;;;7.60;2.57;;;;;;;14.75;100.00;100222.19;4989553;28;20573;-78
2022/10/01 11:29:08;;;;;;;6.00;1.90;;;;;;;14.75;100.00;100233.81;4988280;28;21267;-78
2022/10/01 11:31:45;;;;;;;4.10;1.33;;;;;;;14.97;100.00;100233.97;4989098;28;20439;-78
2022/10/01 11:34:39;;;;;;;4.67;1.43;;;;;;;14.84;100.00;100236.94;4993778;28;20887;-80